sensor_id;sensor_type;location;lat;lon;timestamp;P1;durP1;ratioP1;P2;durP2;ratioP2
66966;SDS011;53900;51.468;-2.586;2023-10-09T00:02:06;13.23;;;6.57;;
66966;SDS011;53900;51.468;-2.586;2023-10-09T00:04:32;12.85;;;6.80;;
66966;SDS011;53900;51.468;-2.586;2023-10-09T00:07:01;15.85;;;6.82;;
66966;SDS011;53900;51.468;-2.586;2023-10-09T00:09:27;12.60;;;5.97;;
66966;SDS011;53900;51.468;-2.586;2023-10-09T00:11:56;11.98;;;4.70;;
66966;SDS011;53900;51.468;-2.586;2023-10-09T00:14:23;11.35;;;4.15;;
66966;SDS011;53900;51.468;-2.586;2023-10-09T00:16:48;11.25;;;4.22;;
66966;SDS011;53900;51.468;-2.586;2023-10-09T00:19:14;9.10;;;4.00;;
66966;SDS011;53900;51.468;-2.586;2023-10-09T00:21:43;11.57;;;3.83;;
66966;SDS011;53900;51.468;-2.586;2023-10-09T00:24:09;7.65;;;3.75;;
66966;SDS011;53900;51.468;-2.586;2023-10-09T00:26:55;8.48;;;4.28;;
66966;SDS011;53900;51.468;-2.586;2023-10-09T00:29:26;11.20;;;4.20;;
66966;SDS011;53900;51.468;-2.586;2023-10-09T00:31:59;7.80;;;4.03;;
66966;SDS011;53900;51.468;-2.586;2023-10-09T00:34:43;8.13;;;3.40;;
66966;SDS011;53900;51.468;-2.586;2023-10-09T00:37:08;9.57;;;4.10;;
66966;SDS011;53900;51.468;-2.586;2023-10-09T00:40:03;11.68;;;3.53;;
66966;SDS011;53900;51.468;-2.586;2023-10-09T00:42:37;7.10;;;4.13;;
66966;SDS011;53900;51.468;-2.586;2023-10-09T00:45:04;10.30;;;3.80;;
66966;SDS011;53900;51.468;-2.586;2023-10-09T00:47:30;8.50;;;4.20;;
66966;SDS011;53900;51.468;-2.586;2023-10-09T00:50:07;8.70;;;4.15;;
66966;SDS011;53900;51.468;-2.586;2023-10-09T00:52:42;9.05;;;4.38;;
66966;SDS011;53900;51.468;-2.586;2023-10-09T00:55:14;9.38;;;4.10;;
66966;SDS011;53900;51.468;-2.586;2023-10-09T00:57:40;11.68;;;4.05;;
66966;SDS011;53900;51.468;-2.586;2023-10-09T01:00:06;10.30;;;4.38;;
66966;SDS011;53900;51.468;-2.586;2023-10-09T01:02:38;8.75;;;4.32;;
66966;SDS011;53900;51.468;-2.586;2023-10-09T01:05:07;8.98;;;4.50;;
66966;SDS011;53900;51.468;-2.586;2023-10-09T01:07:59;7.57;;;4.13;;
66966;SDS011;53900;51.468;-2.586;2023-10-09T01:10:24;10.18;;;4.28;;
66966;SDS011;53900;51.468;-2.586;2023-10-09T01:12:58;9.88;;;4.07;;
66966;SDS011;53900;51.468;-2.586;2023-10-09T01:15:23;8.55;;;4.18;;
66966;SDS011;53900;51.468;-2.586;2023-10-09T01:18:02;9.38;;;3.97;;
66966;SDS011;53900;51.468;-2.586;2023-10-09T01:20:27;11.68;;;4.00;;
66966;SDS011;53900;51.468;-2.586;2023-10-09T01:23:00;7.80;;;3.78;;
66966;SDS011;53900;51.468;-2.586;2023-10-09T01:25:25;11.48;;;4.30;;
66966;SDS011;53900;51.468;-2.586;2023-10-09T01:27:52;7.35;;;4.13;;
66966;SDS011;53900;51.468;-2.586;2023-10-09T01:30:17;9.93;;;3.92;;
66966;SDS011;53900;51.468;-2.586;2023-10-09T01:32:43;9.13;;;3.60;;
66966;SDS011;53900;51.468;-2.586;2023-10-09T01:35:11;13.48;;;4.40;;
66966;SDS011;53900;51.468;-2.586;2023-10-09T01:37:46;8.13;;;3.90;;
66966;SDS011;53900;51.468;-2.586;2023-10-09T01:40:14;8.20;;;3.80;;
66966;SDS011;53900;51.468;-2.586;2023-10-09T01:43:00;10.50;;;4.15;;
66966;SDS011;53900;51.468;-2.586;2023-10-09T01:45:28;6.60;;;3.50;;
66966;SDS011;53900;51.468;-2.586;2023-10-09T01:47:54;12.27;;;4.07;;
66966;SDS011;53900;51.468;-2.586;2023-10-09T01:50:20;9.35;;;3.63;;
66966;SDS011;53900;51.468;-2.586;2023-10-09T01:52:47;13.30;;;4.10;;
66966;SDS011;53900;51.468;-2.586;2023-10-09T01:55:12;12.25;;;3.97;;
66966;SDS011;53900;51.468;-2.586;2023-10-09T01:57:53;8.98;;;4.25;;
66966;SDS011;53900;51.468;-2.586;2023-10-09T02:00:19;11.45;;;4.60;;
66966;SDS011;53900;51.468;-2.586;2023-10-09T02:02:49;13.45;;;4.53;;
66966;SDS011;53900;51.468;-2.586;2023-10-09T02:05:15;12.13;;;4.55;;
66966;SDS011;53900;51.468;-2.586;2023-10-09T02:07:40;12.90;;;5.07;;
66966;SDS011;53900;51.468;-2.586;2023-10-09T02:10:06;9.25;;;5.13;;
66966;SDS011;53900;51.468;-2.586;2023-10-09T02:12:36;15.73;;;5.07;;
66966;SDS011;53900;51.468;-2.586;2023-10-09T02:15:02;10.35;;;4.68;;
66966;SDS011;53900;51.468;-2.586;2023-10-09T02:17:34;7.65;;;4.32;;
66966;SDS011;53900;51.468;-2.586;2023-10-09T02:19:59;10.70;;;4.88;;
66966;SDS011;53900;51.468;-2.586;2023-10-09T02:22:24;13.85;;;4.97;;
66966;SDS011;53900;51.468;-2.586;2023-10-09T02:24:51;10.25;;;4.53;;
66966;SDS011;53900;51.468;-2.586;2023-10-09T02:27:23;12.93;;;5.18;;
66966;SDS011;53900;51.468;-2.586;2023-10-09T02:30:07;9.88;;;4.55;;
66966;SDS011;53900;51.468;-2.586;2023-10-09T02:32:44;8.65;;;4.50;;
66966;SDS011;53900;51.468;-2.586;2023-10-09T02:35:13;8.70;;;4.90;;
66966;SDS011;53900;51.468;-2.586;2023-10-09T02:38:05;8.63;;;4.57;;
66966;SDS011;53900;51.468;-2.586;2023-10-09T02:40:35;7.28;;;4.47;;
66966;SDS011;53900;51.468;-2.586;2023-10-09T02:43:33;15.35;;;5.43;;
66966;SDS011;53900;51.468;-2.586;2023-10-09T02:46:14;9.13;;;5.28;;
66966;SDS011;53900;51.468;-2.586;2023-10-09T02:48:46;9.18;;;4.97;;
66966;SDS011;53900;51.468;-2.586;2023-10-09T02:51:20;9.40;;;4.68;;
66966;SDS011;53900;51.468;-2.586;2023-10-09T02:53:55;13.07;;;4.43;;
66966;SDS011;53900;51.468;-2.586;2023-10-09T02:56:22;8.88;;;4.60;;
66966;SDS011;53900;51.468;-2.586;2023-10-09T02:59:08;8.80;;;4.68;;
66966;SDS011;53900;51.468;-2.586;2023-10-09T03:01:38;13.05;;;5.53;;
66966;SDS011;53900;51.468;-2.586;2023-10-09T03:04:04;9.63;;;4.95;;
66966;SDS011;53900;51.468;-2.586;2023-10-09T03:06:30;12.38;;;5.30;;
66966;SDS011;53900;51.468;-2.586;2023-10-09T03:08:57;10.00;;;5.05;;
66966;SDS011;53900;51.468;-2.586;2023-10-09T03:11:23;10.82;;;5.05;;
66966;SDS011;53900;51.468;-2.586;2023-10-09T03:13:48;9.18;;;4.80;;
66966;SDS011;53900;51.468;-2.586;2023-10-09T03:16:13;12.00;;;4.95;;
66966;SDS011;53900;51.468;-2.586;2023-10-09T03:18:51;13.80;;;5.53;;
66966;SDS011;53900;51.468;-2.586;2023-10-09T03:21:17;18.08;;;5.22;;
66966;SDS011;53900;51.468;-2.586;2023-10-09T03:23:44;10.07;;;5.07;;
66966;SDS011;53900;51.468;-2.586;2023-10-09T03:26:09;16.90;;;5.28;;
66966;SDS011;53900;51.468;-2.586;2023-10-09T03:28:34;10.30;;;4.78;;
66966;SDS011;53900;51.468;-2.586;2023-10-09T03:31:00;9.32;;;5.22;;
66966;SDS011;53900;51.468;-2.586;2023-10-09T03:33:28;10.80;;;5.55;;
66966;SDS011;53900;51.468;-2.586;2023-10-09T03:35:53;12.98;;;5.10;;
66966;SDS011;53900;51.468;-2.586;2023-10-09T03:38:20;12.75;;;5.32;;
66966;SDS011;53900;51.468;-2.586;2023-10-09T03:40:45;14.07;;;6.63;;
66966;SDS011;53900;51.468;-2.586;2023-10-09T03:43:14;12.48;;;5.85;;
66966;SDS011;53900;51.468;-2.586;2023-10-09T03:45:39;14.27;;;6.45;;
66966;SDS011;53900;51.468;-2.586;2023-10-09T03:48:17;11.30;;;6.18;;
66966;SDS011;53900;51.468;-2.586;2023-10-09T03:50:57;19.90;;;8.25;;
66966;SDS011;53900;51.468;-2.586;2023-10-09T03:53:35;14.07;;;7.63;;
66966;SDS011;53900;51.468;-2.586;2023-10-09T03:56:02;17.88;;;8.35;;
66966;SDS011;53900;51.468;-2.586;2023-10-09T03:58:30;23.87;;;11.60;;
66966;SDS011;53900;51.468;-2.586;2023-10-09T04:00:58;21.02;;;11.68;;
66966;SDS011;53900;51.468;-2.586;2023-10-09T04:03:23;23.05;;;13.20;;
66966;SDS011;53900;51.468;-2.586;2023-10-09T04:05:49;24.08;;;12.57;;
66966;SDS011;53900;51.468;-2.586;2023-10-09T04:08:16;25.85;;;13.50;;
66966;SDS011;53900;51.468;-2.586;2023-10-09T04:10:54;25.08;;;12.60;;
66966;SDS011;53900;51.468;-2.586;2023-10-09T04:13:21;24.95;;;13.95;;
66966;SDS011;53900;51.468;-2.586;2023-10-09T04:15:57;22.92;;;13.52;;
66966;SDS011;53900;51.468;-2.586;2023-10-09T04:18:24;27.35;;;12.48;;
66966;SDS011;53900;51.468;-2.586;2023-10-09T04:20:57;24.08;;;10.98;;
66966;SDS011;53900;51.468;-2.586;2023-10-09T04:23:41;23.15;;;10.40;;
66966;SDS011;53900;51.468;-2.586;2023-10-09T04:26:33;20.58;;;10.48;;
66966;SDS011;53900;51.468;-2.586;2023-10-09T04:29:00;18.85;;;9.85;;
66966;SDS011;53900;51.468;-2.586;2023-10-09T04:31:27;25.48;;;11.02;;
66966;SDS011;53900;51.468;-2.586;2023-10-09T04:33:57;21.05;;;12.38;;
66966;SDS011;53900;51.468;-2.586;2023-10-09T04:36:42;21.73;;;12.45;;
66966;SDS011;53900;51.468;-2.586;2023-10-09T04:39:36;25.58;;;13.07;;
66966;SDS011;53900;51.468;-2.586;2023-10-09T04:42:02;28.02;;;13.18;;
66966;SDS011;53900;51.468;-2.586;2023-10-09T04:44:46;23.45;;;12.63;;
66966;SDS011;53900;51.468;-2.586;2023-10-09T04:47:32;25.95;;;13.10;;
66966;SDS011;53900;51.468;-2.586;2023-10-09T04:50:14;29.48;;;13.07;;
66966;SDS011;53900;51.468;-2.586;2023-10-09T04:52:59;27.40;;;13.60;;
66966;SDS011;53900;51.468;-2.586;2023-10-09T04:55:40;28.15;;;14.15;;
66966;SDS011;53900;51.468;-2.586;2023-10-09T04:58:09;30.88;;;14.90;;
66966;SDS011;53900;51.468;-2.586;2023-10-09T05:00:49;25.67;;;14.25;;
66966;SDS011;53900;51.468;-2.586;2023-10-09T05:03:28;29.00;;;14.55;;
66966;SDS011;53900;51.468;-2.586;2023-10-09T05:05:54;30.33;;;14.57;;
66966;SDS011;53900;51.468;-2.586;2023-10-09T05:08:39;29.23;;;14.98;;
66966;SDS011;53900;51.468;-2.586;2023-10-09T05:11:11;23.83;;;13.70;;
66966;SDS011;53900;51.468;-2.586;2023-10-09T05:13:54;26.65;;;14.95;;
66966;SDS011;53900;51.468;-2.586;2023-10-09T05:16:36;31.50;;;14.40;;
66966;SDS011;53900;51.468;-2.586;2023-10-09T05:19:02;25.75;;;14.73;;
66966;SDS011;53900;51.468;-2.586;2023-10-09T05:21:32;32.25;;;15.52;;
66966;SDS011;53900;51.468;-2.586;2023-10-09T05:23:58;28.92;;;15.73;;
66966;SDS011;53900;51.468;-2.586;2023-10-09T05:31:50;28.17;;;14.27;;
66966;SDS011;53900;51.468;-2.586;2023-10-09T05:34:28;34.05;;;15.13;;
66966;SDS011;53900;51.468;-2.586;2023-10-09T05:37:04;31.80;;;14.65;;
66966;SDS011;53900;51.468;-2.586;2023-10-09T05:39:56;27.83;;;14.65;;
66966;SDS011;53900;51.468;-2.586;2023-10-09T05:42:28;31.10;;;14.98;;
66966;SDS011;53900;51.468;-2.586;2023-10-09T05:45:16;27.42;;;15.55;;
66966;SDS011;53900;51.468;-2.586;2023-10-09T05:47:46;27.88;;;15.10;;
66966;SDS011;53900;51.468;-2.586;2023-10-09T05:50:30;31.50;;;15.48;;
66966;SDS011;53900;51.468;-2.586;2023-10-09T05:53:24;26.40;;;14.75;;
66966;SDS011;53900;51.468;-2.586;2023-10-09T05:56:19;25.80;;;14.73;;
66966;SDS011;53900;51.468;-2.586;2023-10-09T05:59:03;26.27;;;14.95;;
66966;SDS011;53900;51.468;-2.586;2023-10-09T06:01:31;25.52;;;14.63;;
66966;SDS011;53900;51.468;-2.586;2023-10-09T06:04:14;32.25;;;13.93;;
66966;SDS011;53900;51.468;-2.586;2023-10-09T06:06:44;25.45;;;14.43;;
66966;SDS011;53900;51.468;-2.586;2023-10-09T06:09:21;32.28;;;15.18;;
66966;SDS011;53900;51.468;-2.586;2023-10-09T06:11:48;28.60;;;13.70;;
66966;SDS011;53900;51.468;-2.586;2023-10-09T06:14:19;32.97;;;14.93;;
66966;SDS011;53900;51.468;-2.586;2023-10-09T06:16:54;26.88;;;14.00;;
66966;SDS011;53900;51.468;-2.586;2023-10-09T06:19:22;30.38;;;14.38;;
66966;SDS011;53900;51.468;-2.586;2023-10-09T06:21:48;26.27;;;13.95;;
66966;SDS011;53900;51.468;-2.586;2023-10-09T06:24:31;27.80;;;13.55;;
66966;SDS011;53900;51.468;-2.586;2023-10-09T06:27:15;26.58;;;15.07;;
66966;SDS011;53900;51.468;-2.586;2023-10-09T06:30:01;27.65;;;13.55;;
66966;SDS011;53900;51.468;-2.586;2023-10-09T06:32:38;27.33;;;13.80;;
66966;SDS011;53900;51.468;-2.586;2023-10-09T06:35:14;26.75;;;14.27;;
66966;SDS011;53900;51.468;-2.586;2023-10-09T06:37:47;24.30;;;14.10;;
66966;SDS011;53900;51.468;-2.586;2023-10-09T06:43:10;23.02;;;13.45;;
66966;SDS011;53900;51.468;-2.586;2023-10-09T06:45:55;26.27;;;13.35;;
66966;SDS011;53900;51.468;-2.586;2023-10-09T06:48:26;27.95;;;14.20;;
66966;SDS011;53900;51.468;-2.586;2023-10-09T06:53:32;27.50;;;14.43;;
66966;SDS011;53900;51.468;-2.586;2023-10-09T06:56:16;28.13;;;13.25;;
66966;SDS011;53900;51.468;-2.586;2023-10-09T07:01:23;28.27;;;14.13;;
66966;SDS011;53900;51.468;-2.586;2023-10-09T07:04:07;30.65;;;13.65;;
66966;SDS011;53900;51.468;-2.586;2023-10-09T07:06:43;27.95;;;14.60;;
66966;SDS011;53900;51.468;-2.586;2023-10-09T07:09:08;28.70;;;14.43;;
66966;SDS011;53900;51.468;-2.586;2023-10-09T07:11:34;26.08;;;13.82;;
66966;SDS011;53900;51.468;-2.586;2023-10-09T07:14:08;29.27;;;14.40;;
66966;SDS011;53900;51.468;-2.586;2023-10-09T07:16:54;28.27;;;13.95;;
66966;SDS011;53900;51.468;-2.586;2023-10-09T07:19:22;31.52;;;13.82;;
66966;SDS011;53900;51.468;-2.586;2023-10-09T07:22:03;27.58;;;13.95;;
66966;SDS011;53900;51.468;-2.586;2023-10-09T07:24:31;28.27;;;13.75;;
66966;SDS011;53900;51.468;-2.586;2023-10-09T07:27:11;28.05;;;13.52;;
66966;SDS011;53900;51.468;-2.586;2023-10-09T07:29:40;29.02;;;13.10;;
66966;SDS011;53900;51.468;-2.586;2023-10-09T07:32:15;26.42;;;13.90;;
66966;SDS011;53900;51.468;-2.586;2023-10-09T07:34:46;29.05;;;13.57;;
66966;SDS011;53900;51.468;-2.586;2023-10-09T07:37:24;28.58;;;13.25;;
66966;SDS011;53900;51.468;-2.586;2023-10-09T07:39:55;30.85;;;13.48;;
66966;SDS011;53900;51.468;-2.586;2023-10-09T07:42:24;27.75;;;12.43;;
66966;SDS011;53900;51.468;-2.586;2023-10-09T07:45:08;22.88;;;11.93;;
66966;SDS011;53900;51.468;-2.586;2023-10-09T07:47:56;28.67;;;13.65;;
66966;SDS011;53900;51.468;-2.586;2023-10-09T07:50:25;22.50;;;12.55;;
66966;SDS011;53900;51.468;-2.586;2023-10-09T07:52:55;29.63;;;12.90;;
66966;SDS011;53900;51.468;-2.586;2023-10-09T07:55:39;27.42;;;11.90;;
66966;SDS011;53900;51.468;-2.586;2023-10-09T07:58:10;26.70;;;12.63;;
66966;SDS011;53900;51.468;-2.586;2023-10-09T08:00:36;22.48;;;12.85;;
66966;SDS011;53900;51.468;-2.586;2023-10-09T08:03:14;31.65;;;13.00;;
66966;SDS011;53900;51.468;-2.586;2023-10-09T08:05:49;31.23;;;12.95;;
66966;SDS011;53900;51.468;-2.586;2023-10-09T08:08:14;26.15;;;12.98;;
66966;SDS011;53900;51.468;-2.586;2023-10-09T08:11:07;29.52;;;11.88;;
66966;SDS011;53900;51.468;-2.586;2023-10-09T08:13:58;25.58;;;12.30;;
66966;SDS011;53900;51.468;-2.586;2023-10-09T08:16:26;30.77;;;12.73;;
66966;SDS011;53900;51.468;-2.586;2023-10-09T08:19:01;27.95;;;13.40;;
66966;SDS011;53900;51.468;-2.586;2023-10-09T08:21:45;31.05;;;13.15;;
66966;SDS011;53900;51.468;-2.586;2023-10-09T08:24:30;35.85;;;12.75;;
66966;SDS011;53900;51.468;-2.586;2023-10-09T08:27:06;32.72;;;12.32;;
66966;SDS011;53900;51.468;-2.586;2023-10-09T08:29:50;28.35;;;12.65;;
66966;SDS011;53900;51.468;-2.586;2023-10-09T08:32:35;24.42;;;12.63;;
66966;SDS011;53900;51.468;-2.586;2023-10-09T08:35:04;27.80;;;12.30;;
66966;SDS011;53900;51.468;-2.586;2023-10-09T08:37:31;26.17;;;13.38;;
66966;SDS011;53900;51.468;-2.586;2023-10-09T08:39:56;38.88;;;13.35;;
66966;SDS011;53900;51.468;-2.586;2023-10-09T08:42:21;28.33;;;13.25;;
66966;SDS011;53900;51.468;-2.586;2023-10-09T08:44:48;25.13;;;13.55;;
66966;SDS011;53900;51.468;-2.586;2023-10-09T08:47:14;29.55;;;13.80;;
66966;SDS011;53900;51.468;-2.586;2023-10-09T08:49:39;26.67;;;13.07;;
66966;SDS011;53900;51.468;-2.586;2023-10-09T08:52:05;21.85;;;12.98;;
66966;SDS011;53900;51.468;-2.586;2023-10-09T08:54:31;27.27;;;11.75;;
66966;SDS011;53900;51.468;-2.586;2023-10-09T08:56:58;23.92;;;11.18;;
66966;SDS011;53900;51.468;-2.586;2023-10-09T08:59:23;29.15;;;12.30;;
66966;SDS011;53900;51.468;-2.586;2023-10-09T09:01:50;24.52;;;11.52;;
66966;SDS011;53900;51.468;-2.586;2023-10-09T09:04:39;23.98;;;10.55;;
66966;SDS011;53900;51.468;-2.586;2023-10-09T09:07:03;25.58;;;9.70;;
66966;SDS011;53900;51.468;-2.586;2023-10-09T09:09:29;21.55;;;9.35;;
66966;SDS011;53900;51.468;-2.586;2023-10-09T09:11:57;26.15;;;9.90;;
66966;SDS011;53900;51.468;-2.586;2023-10-09T09:14:34;21.02;;;8.60;;
66966;SDS011;53900;51.468;-2.586;2023-10-09T09:17:01;20.83;;;9.35;;
66966;SDS011;53900;51.468;-2.586;2023-10-09T09:19:32;15.85;;;7.18;;
66966;SDS011;53900;51.468;-2.586;2023-10-09T09:21:57;16.25;;;7.25;;
66966;SDS011;53900;51.468;-2.586;2023-10-09T09:24:36;17.73;;;7.40;;
66966;SDS011;53900;51.468;-2.586;2023-10-09T09:27:02;17.67;;;7.28;;
66966;SDS011;53900;51.468;-2.586;2023-10-09T09:29:56;22.70;;;7.97;;
66966;SDS011;53900;51.468;-2.586;2023-10-09T09:32:26;20.05;;;8.77;;
66966;SDS011;53900;51.468;-2.586;2023-10-09T09:34:55;21.35;;;8.82;;
66966;SDS011;53900;51.468;-2.586;2023-10-09T09:37:26;23.05;;;8.63;;
66966;SDS011;53900;51.468;-2.586;2023-10-09T09:39:59;17.17;;;7.88;;
66966;SDS011;53900;51.468;-2.586;2023-10-09T09:42:49;13.73;;;6.35;;
66966;SDS011;53900;51.468;-2.586;2023-10-09T09:45:14;12.52;;;6.57;;
66966;SDS011;53900;51.468;-2.586;2023-10-09T09:47:43;15.75;;;7.07;;
66966;SDS011;53900;51.468;-2.586;2023-10-09T09:50:12;17.25;;;6.75;;
66966;SDS011;53900;51.468;-2.586;2023-10-09T09:52:47;16.15;;;6.97;;
66966;SDS011;53900;51.468;-2.586;2023-10-09T09:55:15;15.25;;;7.30;;
66966;SDS011;53900;51.468;-2.586;2023-10-09T09:57:47;14.55;;;6.78;;
66966;SDS011;53900;51.468;-2.586;2023-10-09T10:00:16;13.65;;;7.03;;
66966;SDS011;53900;51.468;-2.586;2023-10-09T10:02:53;11.73;;;6.03;;
66966;SDS011;53900;51.468;-2.586;2023-10-09T10:05:21;11.38;;;6.18;;
66966;SDS011;53900;51.468;-2.586;2023-10-09T10:07:46;12.18;;;6.00;;
66966;SDS011;53900;51.468;-2.586;2023-10-09T10:12:58;18.25;;;5.72;;
66966;SDS011;53900;51.468;-2.586;2023-10-09T10:18:10;11.48;;;5.72;;
66966;SDS011;53900;51.468;-2.586;2023-10-09T10:23:27;11.45;;;5.88;;
66966;SDS011;53900;51.468;-2.586;2023-10-09T10:28:25;15.20;;;5.07;;
66966;SDS011;53900;51.468;-2.586;2023-10-09T10:31:03;13.98;;;5.55;;
66966;SDS011;53900;51.468;-2.586;2023-10-09T10:36:18;10.43;;;5.28;;
66966;SDS011;53900;51.468;-2.586;2023-10-09T10:38:47;16.83;;;4.97;;
66966;SDS011;53900;51.468;-2.586;2023-10-09T10:41:29;12.18;;;5.00;;
66966;SDS011;53900;51.468;-2.586;2023-10-09T10:44:00;7.88;;;4.78;;
66966;SDS011;53900;51.468;-2.586;2023-10-09T10:46:46;9.80;;;4.75;;
66966;SDS011;53900;51.468;-2.586;2023-10-09T10:49:16;10.20;;;5.13;;
66966;SDS011;53900;51.468;-2.586;2023-10-09T10:51:46;9.15;;;5.25;;
66966;SDS011;53900;51.468;-2.586;2023-10-09T10:54:23;10.48;;;4.57;;
66966;SDS011;53900;51.468;-2.586;2023-10-09T10:57:28;9.77;;;4.38;;
66966;SDS011;53900;51.468;-2.586;2023-10-09T10:59:56;21.38;;;5.68;;
66966;SDS011;53900;51.468;-2.586;2023-10-09T11:02:39;9.70;;;4.65;;
66966;SDS011;53900;51.468;-2.586;2023-10-09T11:05:05;8.77;;;4.10;;
66966;SDS011;53900;51.468;-2.586;2023-10-09T11:07:48;10.48;;;4.03;;
66966;SDS011;53900;51.468;-2.586;2023-10-09T11:10:21;9.93;;;4.18;;
66966;SDS011;53900;51.468;-2.586;2023-10-09T11:12:52;7.03;;;4.22;;
66966;SDS011;53900;51.468;-2.586;2023-10-09T11:15:17;9.57;;;4.00;;
66966;SDS011;53900;51.468;-2.586;2023-10-09T11:17:45;11.30;;;4.13;;
66966;SDS011;53900;51.468;-2.586;2023-10-09T11:20:11;12.50;;;4.30;;
66966;SDS011;53900;51.468;-2.586;2023-10-09T11:22:57;10.45;;;3.92;;
66966;SDS011;53900;51.468;-2.586;2023-10-09T11:25:38;12.73;;;4.30;;
66966;SDS011;53900;51.468;-2.586;2023-10-09T11:28:16;8.68;;;4.60;;
66966;SDS011;53900;51.468;-2.586;2023-10-09T11:30:53;9.75;;;3.97;;
66966;SDS011;53900;51.468;-2.586;2023-10-09T11:33:20;10.35;;;3.95;;
66966;SDS011;53900;51.468;-2.586;2023-10-09T11:35:56;11.65;;;4.10;;
66966;SDS011;53900;51.468;-2.586;2023-10-09T11:38:25;13.20;;;4.72;;
66966;SDS011;53900;51.468;-2.586;2023-10-09T11:40:53;11.35;;;3.95;;
66966;SDS011;53900;51.468;-2.586;2023-10-09T11:43:19;7.22;;;4.05;;
66966;SDS011;53900;51.468;-2.586;2023-10-09T11:46:10;12.73;;;4.15;;
66966;SDS011;53900;51.468;-2.586;2023-10-09T11:51:44;6.95;;;3.85;;
66966;SDS011;53900;51.468;-2.586;2023-10-09T11:54:30;8.68;;;3.72;;
66966;SDS011;53900;51.468;-2.586;2023-10-09T11:56:56;9.48;;;3.58;;
66966;SDS011;53900;51.468;-2.586;2023-10-09T11:59:21;11.38;;;3.67;;
66966;SDS011;53900;51.468;-2.586;2023-10-09T12:01:48;8.20;;;3.50;;
66966;SDS011;53900;51.468;-2.586;2023-10-09T12:06:43;9.82;;;3.72;;
66966;SDS011;53900;51.468;-2.586;2023-10-09T12:09:09;7.78;;;3.50;;
66966;SDS011;53900;51.468;-2.586;2023-10-09T12:11:41;9.73;;;3.78;;
66966;SDS011;53900;51.468;-2.586;2023-10-09T12:14:06;7.88;;;3.50;;
66966;SDS011;53900;51.468;-2.586;2023-10-09T12:16:32;7.95;;;4.10;;
66966;SDS011;53900;51.468;-2.586;2023-10-09T12:18:58;6.85;;;4.18;;
66966;SDS011;53900;51.468;-2.586;2023-10-09T12:21:24;8.68;;;3.88;;
66966;SDS011;53900;51.468;-2.586;2023-10-09T12:23:49;6.03;;;3.47;;
66966;SDS011;53900;51.468;-2.586;2023-10-09T12:26:15;8.43;;;4.07;;
66966;SDS011;53900;51.468;-2.586;2023-10-09T12:28:40;9.85;;;4.22;;
66966;SDS011;53900;51.468;-2.586;2023-10-09T12:31:10;8.52;;;3.15;;
66966;SDS011;53900;51.468;-2.586;2023-10-09T12:33:36;5.70;;;3.20;;
66966;SDS011;53900;51.468;-2.586;2023-10-09T12:36:04;8.40;;;3.80;;
66966;SDS011;53900;51.468;-2.586;2023-10-09T12:38:30;8.02;;;3.40;;
66966;SDS011;53900;51.468;-2.586;2023-10-09T12:41:04;9.02;;;3.47;;
66966;SDS011;53900;51.468;-2.586;2023-10-09T12:43:43;9.07;;;3.88;;
66966;SDS011;53900;51.468;-2.586;2023-10-09T12:46:08;13.75;;;4.22;;
66966;SDS011;53900;51.468;-2.586;2023-10-09T12:48:33;9.30;;;4.55;;
66966;SDS011;53900;51.468;-2.586;2023-10-09T12:51:00;11.05;;;4.20;;
66966;SDS011;53900;51.468;-2.586;2023-10-09T12:53:31;8.02;;;3.50;;
66966;SDS011;53900;51.468;-2.586;2023-10-09T12:55:56;10.02;;;3.60;;
66966;SDS011;53900;51.468;-2.586;2023-10-09T12:58:21;14.85;;;3.55;;
66966;SDS011;53900;51.468;-2.586;2023-10-09T13:00:51;10.55;;;3.40;;
66966;SDS011;53900;51.468;-2.586;2023-10-09T13:03:17;25.15;;;3.83;;
66966;SDS011;53900;51.468;-2.586;2023-10-09T13:05:49;13.15;;;3.75;;
66966;SDS011;53900;51.468;-2.586;2023-10-09T13:08:29;9.15;;;3.40;;
66966;SDS011;53900;51.468;-2.586;2023-10-09T13:11:04;6.40;;;2.75;;
66966;SDS011;53900;51.468;-2.586;2023-10-09T13:13:35;11.68;;;3.10;;
66966;SDS011;53900;51.468;-2.586;2023-10-09T13:16:16;6.30;;;3.10;;
66966;SDS011;53900;51.468;-2.586;2023-10-09T13:18:51;5.85;;;3.28;;
66966;SDS011;53900;51.468;-2.586;2023-10-09T13:23:42;6.63;;;2.90;;
66966;SDS011;53900;51.468;-2.586;2023-10-09T13:26:12;5.10;;;2.78;;
66966;SDS011;53900;51.468;-2.586;2023-10-09T13:28:44;6.82;;;2.67;;
66966;SDS011;53900;51.468;-2.586;2023-10-09T13:31:10;7.97;;;2.78;;
66966;SDS011;53900;51.468;-2.586;2023-10-09T13:33:39;10.63;;;3.00;;
66966;SDS011;53900;51.468;-2.586;2023-10-09T13:36:04;8.63;;;3.45;;
66966;SDS011;53900;51.468;-2.586;2023-10-09T13:38:40;8.00;;;3.05;;
66966;SDS011;53900;51.468;-2.586;2023-10-09T13:41:08;10.68;;;2.80;;
66966;SDS011;53900;51.468;-2.586;2023-10-09T13:43:38;5.82;;;2.83;;
66966;SDS011;53900;51.468;-2.586;2023-10-09T13:46:05;8.70;;;2.80;;
66966;SDS011;53900;51.468;-2.586;2023-10-09T13:48:31;7.63;;;2.78;;
66966;SDS011;53900;51.468;-2.586;2023-10-09T13:51:02;8.93;;;2.60;;
66966;SDS011;53900;51.468;-2.586;2023-10-09T13:53:32;7.45;;;3.05;;
66966;SDS011;53900;51.468;-2.586;2023-10-09T13:55:57;12.68;;;2.88;;
66966;SDS011;53900;51.468;-2.586;2023-10-09T13:58:23;5.45;;;2.70;;
66966;SDS011;53900;51.468;-2.586;2023-10-09T14:00:49;8.02;;;2.72;;
66966;SDS011;53900;51.468;-2.586;2023-10-09T14:03:15;13.73;;;3.20;;
66966;SDS011;53900;51.468;-2.586;2023-10-09T14:05:44;5.53;;;2.70;;
66966;SDS011;53900;51.468;-2.586;2023-10-09T14:08:22;4.22;;;2.70;;
66966;SDS011;53900;51.468;-2.586;2023-10-09T14:10:48;8.63;;;2.67;;
66966;SDS011;53900;51.468;-2.586;2023-10-09T14:13:14;7.80;;;2.58;;
66966;SDS011;53900;51.468;-2.586;2023-10-09T14:15:41;4.40;;;2.53;;
66966;SDS011;53900;51.468;-2.586;2023-10-09T14:18:08;3.42;;;2.20;;
66966;SDS011;53900;51.468;-2.586;2023-10-09T14:20:36;6.37;;;2.90;;
66966;SDS011;53900;51.468;-2.586;2023-10-09T14:23:02;6.72;;;2.65;;
66966;SDS011;53900;51.468;-2.586;2023-10-09T14:25:37;7.45;;;2.30;;
66966;SDS011;53900;51.468;-2.586;2023-10-09T14:28:07;7.85;;;2.55;;
66966;SDS011;53900;51.468;-2.586;2023-10-09T14:30:34;5.72;;;2.53;;
66966;SDS011;53900;51.468;-2.586;2023-10-09T14:33:07;6.38;;;2.60;;
66966;SDS011;53900;51.468;-2.586;2023-10-09T14:35:37;4.75;;;2.20;;
66966;SDS011;53900;51.468;-2.586;2023-10-09T14:38:04;5.10;;;2.40;;
66966;SDS011;53900;51.468;-2.586;2023-10-09T14:40:36;9.52;;;2.60;;
66966;SDS011;53900;51.468;-2.586;2023-10-09T14:43:06;7.53;;;2.42;;
66966;SDS011;53900;51.468;-2.586;2023-10-09T14:45:35;5.18;;;2.30;;
66966;SDS011;53900;51.468;-2.586;2023-10-09T14:48:01;8.95;;;2.65;;
66966;SDS011;53900;51.468;-2.586;2023-10-09T14:50:26;5.70;;;2.90;;
66966;SDS011;53900;51.468;-2.586;2023-10-09T14:52:51;6.38;;;2.67;;
66966;SDS011;53900;51.468;-2.586;2023-10-09T14:55:17;4.97;;;2.90;;
66966;SDS011;53900;51.468;-2.586;2023-10-09T14:57:52;5.75;;;3.15;;
66966;SDS011;53900;51.468;-2.586;2023-10-09T15:00:17;8.20;;;2.95;;
66966;SDS011;53900;51.468;-2.586;2023-10-09T15:02:48;6.88;;;2.90;;
66966;SDS011;53900;51.468;-2.586;2023-10-09T15:05:13;7.80;;;3.15;;
66966;SDS011;53900;51.468;-2.586;2023-10-09T15:07:38;5.90;;;2.88;;
66966;SDS011;53900;51.468;-2.586;2023-10-09T15:10:06;6.25;;;3.30;;
66966;SDS011;53900;51.468;-2.586;2023-10-09T15:12:34;5.57;;;3.38;;
66966;SDS011;53900;51.468;-2.586;2023-10-09T15:15:04;5.60;;;3.13;;
66966;SDS011;53900;51.468;-2.586;2023-10-09T15:17:36;4.50;;;2.90;;
66966;SDS011;53900;51.468;-2.586;2023-10-09T15:20:01;7.40;;;3.33;;
66966;SDS011;53900;51.468;-2.586;2023-10-09T15:22:27;5.50;;;3.40;;
66966;SDS011;53900;51.468;-2.586;2023-10-09T15:25:00;7.15;;;3.30;;